Chavdar Paskov

Recruteur en chef - Levski
4 Nov 2027
Jeudi
Processus

Personnalité

Adaptabilité (3) Ambition (9) Controverse (13) Loyauté (16) Pression (7) Professionnalisme (5) Sportivité (10) Tempérament (17)

Profil

Style d'entraînement Démocratique
Diplôme National B
Détermination 11
Gestion des joueurs 7
Motivation 5
Discipline 10
Satisfaction professionnelle
100%
Fatigue
0%
Rôle Recruteur en chef
Salaire 42.2K p/s
Contrat 14.03.2030

Performance

Comportement Bon
Efficacité de l'entraînement
44%
Développement des joueurs
20%
Prévention des blessures
20%
Mise en place tactique
35%

Événements récents

A participé à une réunion de recrutement maintenant
A participé à une réunion de recrutement maintenant
A recommandé une cible de transfert maintenant
A recommandé une cible de transfert maintenant
A recommandé une cible de transfert maintenant
A recommandé une cible de transfert maintenant
A évalué un joueur 7j
A évalué un joueur 7j

Suivi en cours

108
Joueur Club Statut Capacité Confiance Observé Dernière observation Dernier vote
Lucas Camejo River Plate Actif 85 / 77 40% 2 03.11.2027 -
Olivier Mambwa Young Boys Actif 105 / 124 40% 1 03.11.2027 -
Juan Morán Godoy Cruz Actif 113 / 120 40% 1 03.11.2027 -
Agustín Obregón River Plate Actif 110 / 115 40% 2 02.11.2027 -
Joel Ezra Enyimba Actif 103 / 106 40% 4 02.11.2027 -
José Correa Deportivo Tachira Actif 85 / 96 40% 1 02.11.2027 -
Jovan Milosavljević Kalmar FF Actif 104 / 105 40% 2 31.10.2027 -
Axel Tape Bayer Leverkusen Actif 132 / 141 40% 1 31.10.2027 -
Aiden Hezarkhani Real Salt Lake Actif 90 / 87 40% 1 31.10.2027 -
Sam Curtis Cambridge United Actif 102 / 125 40% 1 30.10.2027 -
Stanley Wilson AIK Actif 100 / 92 40% 1 30.10.2027 -
Godwin Oham Warri Wolves Actif 83 / 80 40% 2 26.10.2027 -
Diego Vargas San Marcos de Arica Actif 97 / 91 40% 2 26.10.2027 -
Matías Canedo Rampla Juniors Actif 87 / 96 40% 1 26.10.2027 -
Marvelous Freedom Ikorodu City Actif 91 / 102 40% 3 25.10.2027 -
Caleb Yirenkyi Coventry City Actif 148 / 159 40% 1 25.10.2027 -
Martín Jiménez Audax Italiano Actif 100 / 104 40% 1 19.10.2027 -
Trey Nyoni Rotherham United Actif 128 / 153 40% 1 19.10.2027 -
Yiandro Raap Ilves Actif 98 / 112 40% 2 17.10.2027 -
Nika Kvaratskhelia Tskhinvali Actif 101 / 109 40% 2 17.10.2027 -
Jens Hjertø-Dahl Hull City Actif 136 / 142 40% 2 17.10.2027 -
Harrison Armstrong Everton Actif 132 / 145 40% 1 16.10.2027 -
Esteban de Lima Tacuarembo Actif 92 / 100 40% 1 15.10.2027 -
David Damboama El-Kanemi Warriors Actif 96 / 88 40% 1 15.10.2027 -
Hervin Goyes Deportivo Pasto Actif 106 / 98 40% 2 14.10.2027 -
Joaquín Nazar Maipú Actif 80 / 91 40% 1 14.10.2027 -
Juan Camilo Córdoba Deportivo Pereira Actif 83 / 88 40% 2 13.10.2027 -
Joe Johnson Barnet Actif 105 / 105 40% 1 12.10.2027 -
Gift Udoh Ikorodu City Actif 85 / 79 40% 1 05.10.2027 -
Tobias Moi Bodo/Glimt Actif 98 / 121 40% 1 05.10.2027 -
Ronan Kpakio Cardiff City Actif 125 / 128 40% 1 05.10.2027 -
Chris Rigg Sunderland Actif 134 / 138 40% 2 04.10.2027 -
Muminhon Bahodirxonov Neftchi Actif 84 / 101 40% 1 04.10.2027 -
Celías Ingenthron Vélez Actif 116 / 135 40% 1 06.09.2027 -
Ignacio Fernández Boston River Actif 85 / 114 40% 1 31.08.2027 -
Uche Jaguar Kwara United Actif 101 / 87 40% 1 24.08.2027 -
Mpho Khethang AS Police Actif 98 / 80 40% 1 24.08.2027 -
Oliver Lynch Dobrudzha Actif 82 / 85 30% 1 / 1m 18.08.2027 -
Simeon Petrov Botev Plovdiv Actif 110 / 121 72% 1 16.08.2027 Approuver
Richard Koné Queens Park Rangers Actif 119 / 135 40% 1 01.07.2027 -
Andri Guðjohnsen Blackburn Rovers Actif 120 / 124 40% 1 01.07.2027 -
Sam Bell Bristol City Actif 114 / 133 40% 2 30.06.2027 -
Rhian Brewster Oxford United Actif 130 / 127 40% 1 30.06.2027 -
Hwang Hee-Chan Wolverhampton Actif 126 / 150 40% 1 30.06.2027 -
Aune Heggebø West Bromwich Albion Actif 138 / 128 40% 1 28.06.2027 -
Etiosa Ighodaro Kaizer Chiefs Actif 106 / 98 40% 1 28.06.2027 -
Josh Vickers Rotherham United Perdu 108 / 112 40% 1 21.06.2027 -
Lorenzo Palmisani Frosinone Actif 141 / 134 40% 1 21.06.2027 -
Kostantis Tzolakis Hull City Actif 150 / 150 40% 1 21.06.2027 -
Samuel Kalu Botev Plovdiv Actif 121 / 121 40% 1 03.06.2027 Plus d'infos
Themba Ngcobo SuperSport United Actif 119 / 114 40% 1 03.06.2027 -
Dany Mota Monza Perdu 126 / 119 40% 1 03.06.2027 -
Ricardo Ribeiro Septemvri Actif 96 / 89 72% 1 01.06.2027 Approuver
Lorent Tolaj Plymouth Argyle Actif 119 / 129 40% 1 31.05.2027 Plus d'infos
Patson Daka Leicester City Actif 122 / 122 40% 1 31.05.2027 Plus d'infos
Kirill Glazunov Zenit Actif 80 / 73 40% 1 22.01.2027 -
Ivan Shilenok Zenit Actif 85 / 96 40% 2 21.01.2027 -
Keagan Phiri Platinum Stars Actif 92 / 102 40% 1 21.01.2027 -
Hlompho Lorch Ajax Cape Town Actif 97 / 110 40% 1 21.01.2027 -
Gonçalo Oliveira Benfica Actif 98 / 101 40% 3 20.01.2027 -
Keagan Tau Ajax Cape Town Actif 94 / 106 40% 2 20.01.2027 -
Yussif Saidu Zaragoza Actif 122 / 123 40% 3 19.01.2027 -
Josh Smith Accrington Stanley Actif 77 / 92 40% 1 19.01.2027 -
Elie N'Gatta Sochaux Actif 91 / 99 40% 1 19.01.2027 -
Percy Jali Free State Stars Actif 92 / 116 40% 3 18.01.2027 -
Bernardo Lima Porto Actif 100 / 112 40% 2 18.01.2027 -
Dominik Yankov Arda Actif 120 / 125 72% 1 18.01.2027 Approuver
Juan Giménez Celta Actif 105 / 109 40% 4 15.01.2027 -
Dmitry Ivannikov Chaika Actif 87 / 96 40% 1 15.01.2027 -
Zaïd BafdilI Sporting CP Actif 97 / 89 40% 1 14.01.2027 -
Ezra Mayers West Ham United Actif 114 / 129 40% 4 13.01.2027 -
Jabu Mokone Bidvest Wits Actif 82 / 98 40% 1 13.01.2027 -
Tiago Freitas Benfica Actif 97 / 114 40% 1 10.01.2027 -
Dean Huijsen Villarreal Actif 152 / 145 40% 1 10.01.2027 -
Cemran Dansin Orlando Pirates Actif 119 / 129 40% 1 03.01.2027 -
Mauro Rodrigues Botev Plovdiv Actif 104 / 117 72% 1 02.01.2027 Approuver
Christos Mouzakitis Hull City Actif 137 / 149 40% 1 02.11.2026 -
Daniel Kelly Oxford United Actif 102 / 111 40% 2 12.10.2026 -
Josh Wynder Benfica Actif 104 / 117 40% 1 09.10.2026 -
Marko Ristić ND Gorica Actif 112 / 104 40% 1 07.10.2026 -
Ignacio Ovando Rosario Central Actif 97 / 118 40% 2 05.10.2026 -
Morrison Agyemang Charlotte Football Club Actif 122 / 110 40% 1 05.10.2026 -
Filip Lissah Swansea City Actif 97 / 98 40% 2 18.09.2026 -
Ricky Atletico Venezuela Actif 89 / 111 40% 2 18.09.2026 -
Ramiro Soperez Lanús Actif 88 / 102 40% 1 18.09.2026 -
José Movillo O'Higgins Actif 78 / 76 40% 1 17.09.2026 -
Teun Gijselhart Deportivo La Coruña Actif 102 / 111 40% 1 15.09.2026 -
Jaydan Kamason Manchester United Actif 103 / 103 40% 2 10.09.2026 -
Rhys Chadwick Leyton Orient Actif 83 / 110 40% 1 10.09.2026 -
Valente Pierani Estudiantes Actif 101 / 98 40% 1 09.09.2026 -
Harbor Miller LA Galaxy Actif 87 / 86 40% 1 09.09.2026 -
Kai Andrews Coventry City Actif 99 / 122 40% 1 09.09.2026 -
João Muniz Sporting CP Actif 116 / 115 40% 1 07.09.2026 -
Felipe Obradovich Ferro Carril Oeste Actif 112 / 135 40% 1 06.09.2026 -
Ángel Azuaje Pumas UNAM Actif 75 / 86 40% 1 06.09.2026 -
Law McCabe Middlesbrough Actif 110 / 119 40% 1 05.09.2026 -
Tom Iorpenda Swansea City Actif 100 / 104 40% 1 31.08.2026 -
Marcos López Banfield Actif 102 / 89 40% 1 31.08.2026 -
Joel Godoy Sarmiento Actif 111 / 103 40% 2 24.08.2026 -
Bautista Maillier Colón Actif 81 / 94 40% 1 24.08.2026 -
Josh Laqeretabua Charlton Athletic Actif 96 / 102 40% 1 20.08.2026 -
Facundo Basualdo Newell's Old Boys Actif 82 / 79 40% 1 12.08.2026 -
Vimal Yoganathan Barnsley Actif 100 / 84 40% 1 12.08.2026 -
Santino Piccinetti Huracán Actif 96 / 117 40% 1 12.08.2026 -
Tsvetoslav Marinov Spartak 1918 Actif 89 / 102 40% 1 10.08.2026 -
Alfie Cresswell Leeds United Actif 90 / 83 40% 1 03.08.2026 -
Joaquín Silva Santiago Wanderers Actif 78 / 103 40% 1 01.08.2026 -
Leo Shahar Newcastle United Actif 97 / 119 40% 1 01.08.2026 -